createdAt,value
2017-05-29T00:02:17.066Z,20.50
2017-05-29T00:04:44.407Z,20.50
2017-05-29T00:07:11.871Z,20.40
2017-05-29T00:09:39.357Z,20.30
2017-05-29T00:12:06.739Z,20.30
2017-05-29T00:14:34.101Z,20.30
2017-05-29T00:17:00.527Z,20.10
2017-05-29T00:19:27.843Z,20.40
2017-05-29T00:21:54.931Z,20.30
2017-05-29T00:24:22.025Z,20.30
2017-05-29T00:26:49.228Z,20.30
2017-05-29T00:29:16.409Z,20.30
2017-05-29T00:31:43.610Z,20.30
2017-05-29T00:34:11.097Z,20.30
2017-05-29T00:36:38.140Z,20.30
2017-05-29T00:39:05.401Z,20.40
2017-05-29T00:41:32.587Z,20.40
2017-05-29T00:43:59.658Z,20.20
2017-05-29T00:46:26.735Z,20.20
2017-05-29T00:48:53.862Z,20.20
2017-05-29T00:51:20.945Z,20.20
2017-05-29T00:53:48.049Z,20.00
2017-05-29T00:56:15.958Z,20.10
2017-05-29T00:58:43.068Z,20.00
2017-05-29T01:01:10.195Z,20.00
2017-05-29T01:03:37.299Z,20.00
2017-05-29T01:06:04.373Z,20.00
2017-05-29T01:08:31.792Z,20.00
2017-05-29T01:10:58.882Z,20.00
2017-05-29T01:13:26.001Z,20.00
2017-05-29T01:15:53.132Z,19.90
2017-05-29T01:18:20.246Z,19.90
2017-05-29T01:20:47.335Z,19.90
2017-05-29T01:23:14.659Z,19.80
2017-05-29T01:25:41.775Z,19.80
2017-05-29T01:28:08.901Z,19.80
2017-05-29T01:30:36.178Z,19.90
2017-05-29T01:33:03.379Z,19.90
2017-05-29T01:35:30.539Z,19.80
2017-05-29T01:37:57.706Z,19.90
2017-05-29T01:40:24.845Z,19.80
2017-05-29T01:42:52.263Z,19.80
2017-05-29T01:45:19.432Z,19.90
2017-05-29T01:47:46.797Z,19.80
2017-05-29T01:50:13.971Z,19.70
2017-05-29T01:52:41.136Z,19.80
2017-05-29T01:55:07.493Z,19.80
2017-05-29T01:57:34.623Z,19.80
2017-05-29T02:00:01.733Z,19.80
2017-05-29T02:02:28.969Z,19.90
2017-05-29T02:04:55.781Z,19.70
2017-05-29T02:07:22.971Z,19.90
2017-05-29T02:09:50.091Z,19.90
2017-05-29T02:12:17.420Z,19.90
2017-05-29T02:14:44.559Z,19.90
2017-05-29T02:17:11.678Z,19.80
2017-05-29T02:19:38.956Z,19.90
2017-05-29T02:22:06.220Z,19.90
2017-05-29T02:24:33.374Z,19.90
2017-05-29T02:27:00.464Z,19.90
2017-05-29T02:29:27.571Z,20.00
2017-05-29T02:31:54.687Z,20.00
2017-05-29T02:34:21.754Z,20.00
2017-05-29T02:36:48.935Z,20.00
2017-05-29T02:39:16.100Z,20.00
2017-05-29T02:41:43.354Z,20.00
2017-05-29T02:44:10.580Z,20.00
2017-05-29T02:46:37.930Z,20.00
2017-05-29T02:49:04.349Z,19.90
2017-05-29T02:51:31.507Z,20.00
2017-05-29T02:53:58.662Z,20.10
2017-05-29T02:56:25.715Z,20.10
2017-05-29T02:58:52.773Z,20.20
2017-05-29T03:01:19.929Z,20.20
2017-05-29T03:03:47.067Z,20.20
2017-05-29T03:06:14.397Z,20.20
2017-05-29T03:08:41.510Z,20.10
2017-05-29T03:11:08.636Z,20.00
2017-05-29T03:13:35.767Z,20.00
2017-05-29T03:16:02.866Z,20.00
2017-05-29T03:18:29.943Z,20.00
2017-05-29T03:20:57.064Z,20.00
2017-05-29T03:23:24.269Z,19.70
2017-05-29T03:25:51.443Z,19.70
2017-05-29T03:28:18.680Z,19.80
2017-05-29T03:30:45.876Z,19.80
2017-05-29T03:33:13.021Z,19.80
2017-05-29T03:35:40.105Z,19.80
2017-05-29T03:38:07.466Z,19.80
2017-05-29T03:40:34.603Z,19.80
2017-05-29T03:43:01.824Z,19.70
2017-05-29T03:45:29.047Z,19.70
2017-05-29T03:47:56.412Z,19.90
2017-05-29T03:50:23.666Z,19.90
2017-05-29T03:52:50.911Z,19.90
2017-05-29T03:55:18.108Z,19.90
2017-05-29T03:57:45.271Z,19.80
2017-05-29T04:00:12.359Z,19.90
2017-05-29T04:02:39.494Z,19.90
2017-05-29T04:05:06.564Z,19.90
2017-05-29T04:07:33.622Z,19.90
2017-05-29T04:10:00.698Z,19.80
2017-05-29T04:12:27.914Z,19.90
2017-05-29T04:14:55.119Z,19.90
2017-05-29T04:17:22.175Z,19.90
2017-05-29T04:19:49.251Z,20.00
2017-05-29T04:22:16.861Z,19.90
2017-05-29T04:24:43.988Z,19.90
2017-05-29T04:27:11.123Z,19.80
2017-05-29T04:29:38.282Z,19.90
2017-05-29T04:32:05.422Z,19.90
2017-05-29T04:34:32.561Z,19.90
2017-05-29T04:36:59.663Z,20.00
2017-05-29T04:39:26.810Z,20.10
2017-05-29T04:41:54.120Z,20.10
2017-05-29T04:44:21.262Z,20.10
2017-05-29T04:46:48.667Z,20.00
2017-05-29T04:49:15.937Z,20.20
2017-05-29T04:51:43.067Z,20.20
2017-05-29T04:54:10.211Z,20.20
2017-05-29T04:56:36.547Z,20.20
2017-05-29T04:59:03.617Z,20.20
2017-05-29T05:01:31.131Z,20.30
2017-05-29T05:03:58.525Z,20.30
2017-05-29T05:06:25.691Z,20.30
2017-05-29T05:08:52.848Z,20.40
2017-05-29T05:11:19.975Z,20.40
2017-05-29T05:13:47.232Z,20.30
2017-05-29T05:16:14.447Z,20.50
2017-05-29T05:18:41.726Z,20.50
2017-05-29T05:21:09.184Z,20.60
2017-05-29T05:23:36.607Z,20.60
2017-05-29T05:26:04.199Z,20.70
2017-05-29T05:28:31.019Z,20.70
2017-05-29T05:30:58.319Z,20.90
2017-05-29T05:33:25.637Z,21.10
2017-05-29T05:35:53.027Z,21.20
2017-05-29T05:38:20.494Z,21.30
2017-05-29T05:40:47.923Z,21.40
2017-05-29T05:43:15.301Z,21.30
2017-05-29T05:45:42.887Z,21.50
2017-05-29T05:48:10.262Z,21.50
2017-05-29T05:50:37.667Z,21.60
2017-05-29T05:53:04.978Z,21.70
2017-05-29T05:55:32.448Z,21.60
2017-05-29T05:57:59.848Z,21.80
2017-05-29T06:00:27.174Z,22.00
2017-05-29T06:02:54.479Z,22.20
2017-05-29T06:05:21.871Z,22.20
2017-05-29T06:07:49.448Z,22.20
2017-05-29T06:10:16.063Z,22.10
2017-05-29T06:12:43.579Z,22.20
2017-05-29T06:15:10.986Z,22.20
2017-05-29T06:17:38.424Z,22.30
2017-05-29T06:20:05.824Z,22.20
2017-05-29T06:22:33.173Z,22.10
2017-05-29T06:25:00.684Z,22.20
2017-05-29T06:27:28.205Z,22.40
2017-05-29T06:29:55.947Z,22.40
2017-05-29T06:32:23.330Z,22.60
2017-05-29T06:34:50.725Z,22.60
2017-05-29T06:37:18.137Z,22.50
2017-05-29T06:39:45.566Z,22.60
2017-05-29T06:42:12.893Z,22.60
2017-05-29T06:44:40.248Z,22.80
2017-05-29T06:47:07.698Z,22.80
2017-05-29T06:49:35.143Z,22.90
2017-05-29T06:52:02.430Z,22.90
2017-05-29T06:54:29.671Z,23.10
2017-05-29T06:56:57.037Z,23.10
2017-05-29T06:59:24.416Z,23.30
2017-05-29T07:01:51.928Z,23.40
2017-05-29T07:04:19.395Z,23.50
2017-05-29T07:06:45.959Z,23.50
2017-05-29T07:09:13.291Z,23.60
2017-05-29T07:11:40.549Z,23.70
2017-05-29T07:14:08.202Z,23.60
2017-05-29T07:16:35.680Z,23.60
2017-05-29T07:19:02.591Z,23.50
2017-05-29T07:21:30.032Z,23.90
2017-05-29T07:23:57.775Z,24.10
2017-05-29T07:26:25.206Z,24.30
2017-05-29T07:28:52.884Z,24.30
2017-05-29T07:31:21.076Z,24.40
2017-05-29T07:33:48.494Z,24.40
2017-05-29T07:36:16.037Z,24.60
2017-05-29T07:38:44.129Z,24.80
2017-05-29T07:41:11.476Z,25.00
2017-05-29T07:43:38.850Z,25.20
2017-05-29T07:46:06.409Z,25.10
2017-05-29T07:48:35.293Z,25.20
2017-05-29T07:51:02.790Z,25.20
2017-05-29T07:53:30.395Z,25.30
2017-05-29T07:55:57.786Z,25.40
2017-05-29T07:58:26.193Z,25.70
2017-05-29T08:00:53.857Z,26.00
2017-05-29T08:03:21.163Z,26.20
2017-05-29T08:05:48.557Z,26.40
2017-05-29T08:08:15.850Z,26.90
2017-05-29T08:10:43.186Z,27.60
2017-05-29T08:13:10.628Z,28.80
2017-05-29T08:15:37.937Z,30.20
2017-05-29T08:18:05.293Z,31.20
2017-05-29T08:20:31.930Z,31.10
2017-05-29T08:22:59.368Z,31.60
2017-05-29T08:25:27.408Z,32.10
2017-05-29T08:27:54.881Z,32.70
2017-05-29T08:30:22.215Z,33.40
2017-05-29T08:32:49.603Z,34.20
2017-05-29T08:35:17.118Z,34.20
2017-05-29T08:37:46.407Z,34.30
2017-05-29T08:40:13.759Z,34.60
2017-05-29T08:42:42.730Z,34.20
2017-05-29T08:45:10.427Z,34.30
2017-05-29T08:47:38.017Z,34.80
2017-05-29T08:50:05.292Z,34.60
2017-05-29T08:52:33.061Z,33.70
2017-05-29T08:55:04.434Z,33.50
2017-05-29T08:57:31.762Z,32.30
2017-05-29T08:59:59.222Z,31.60
2017-05-29T09:02:26.569Z,31.10
2017-05-29T09:04:54.263Z,30.70
2017-05-29T09:07:21.598Z,30.20
2017-05-29T09:09:49.172Z,29.90
2017-05-29T09:12:22.132Z,29.80
2017-05-29T09:14:49.663Z,29.60
2017-05-29T09:17:17.053Z,29.60
2017-05-29T09:19:44.393Z,29.50
2017-05-29T09:22:11.618Z,29.60
2017-05-29T09:24:46.512Z,29.60
2017-05-29T09:27:13.856Z,29.60
2017-05-29T09:29:41.340Z,29.60
2017-05-29T09:32:10.003Z,29.60
2017-05-29T09:34:37.622Z,29.70
2017-05-29T09:37:06.226Z,29.70
2017-05-29T09:39:32.942Z,29.60
2017-05-29T09:42:00.259Z,29.60
2017-05-29T09:44:30.996Z,29.70
2017-05-29T09:46:58.195Z,29.90
2017-05-29T09:49:25.349Z,29.90
2017-05-29T09:51:52.755Z,29.90
2017-05-29T09:54:20.130Z,30.00
2017-05-29T09:56:49.077Z,30.00
2017-05-29T09:59:16.517Z,29.90
2017-05-29T10:01:44.180Z,30.00
2017-05-29T10:04:11.650Z,30.00
2017-05-29T10:06:41.512Z,29.90
2017-05-29T10:09:08.863Z,30.10
2017-05-29T10:11:36.199Z,30.30
2017-05-29T10:14:03.388Z,30.50
2017-05-29T10:16:30.477Z,30.50
2017-05-29T10:19:04.334Z,30.50
2017-05-29T10:21:31.527Z,30.60
2017-05-29T10:23:58.658Z,30.60
2017-05-29T10:26:26.260Z,30.90
2017-05-29T10:28:53.660Z,30.90
2017-05-29T10:31:25.240Z,30.90
2017-05-29T10:33:52.435Z,30.90
2017-05-29T10:36:19.856Z,31.00
2017-05-29T10:38:46.978Z,30.90
2017-05-29T10:41:14.044Z,31.00
2017-05-29T10:43:46.034Z,31.20
2017-05-29T10:46:13.127Z,31.20
2017-05-29T10:48:40.228Z,31.30
2017-05-29T10:51:07.352Z,31.10
2017-05-29T10:53:34.461Z,31.00
2017-05-29T10:56:01.517Z,31.00
2017-05-29T10:58:29.583Z,31.20
2017-05-29T11:00:56.710Z,31.20
2017-05-29T11:03:23.817Z,31.00
2017-05-29T11:05:50.944Z,30.90
2017-05-29T11:08:17.480Z,30.80
2017-05-29T11:10:44.610Z,31.10
2017-05-29T11:13:12.614Z,31.10
2017-05-29T11:15:39.824Z,31.30
2017-05-29T11:18:06.927Z,31.40
2017-05-29T11:20:34.005Z,31.40
2017-05-29T11:23:01.119Z,31.20
2017-05-29T11:25:34.228Z,31.60
2017-05-29T11:28:01.305Z,31.60
2017-05-29T11:30:28.457Z,31.50
2017-05-29T11:32:55.684Z,31.40
2017-05-29T11:35:23.004Z,31.70
2017-05-29T11:37:50.363Z,31.70
2017-05-29T11:40:20.605Z,31.90
2017-05-29T11:42:47.770Z,31.80
2017-05-29T11:45:14.974Z,31.70
2017-05-29T11:47:42.075Z,31.70
2017-05-29T11:50:09.210Z,31.70
2017-05-29T11:52:42.075Z,31.80
2017-05-29T11:55:09.190Z,31.90
2017-05-29T11:57:36.556Z,31.80
2017-05-29T12:00:03.687Z,31.60
2017-05-29T12:02:30.806Z,31.20
2017-05-29T12:07:32.203Z,31.60
2017-05-29T12:09:59.419Z,31.50
2017-05-29T12:12:26.528Z,31.60
2017-05-29T12:14:53.921Z,31.60
2017-05-29T12:17:27.961Z,31.80
2017-05-29T12:19:55.123Z,32.10
2017-05-29T12:22:22.333Z,32.20
2017-05-29T12:24:49.461Z,32.20
2017-05-29T12:27:16.715Z,32.10
2017-05-29T12:29:47.924Z,31.90
2017-05-29T12:32:15.236Z,31.90
2017-05-29T12:34:42.389Z,31.90
2017-05-29T12:37:09.532Z,31.90
2017-05-29T12:39:37.449Z,31.90
2017-05-29T12:42:09.525Z,31.90
2017-05-29T12:44:36.621Z,32.00
2017-05-29T12:47:03.766Z,32.00
2017-05-29T12:49:35.015Z,32.10
2017-05-29T12:52:11.743Z,32.30
2017-05-29T12:54:38.299Z,32.30
2017-05-29T12:57:05.519Z,32.50
2017-05-29T12:59:32.139Z,32.50
2017-05-29T13:01:59.318Z,32.30
2017-05-29T13:04:26.375Z,32.30
2017-05-29T13:06:53.453Z,32.40
2017-05-29T13:09:20.513Z,32.20
2017-05-29T13:11:47.586Z,32.10
2017-05-29T13:14:14.672Z,32.10
2017-05-29T13:16:45.037Z,32.10
2017-05-29T13:19:12.843Z,32.30
2017-05-29T13:21:41.087Z,32.40
2017-05-29T13:24:08.233Z,32.50
2017-05-29T13:26:43.524Z,32.60
2017-05-29T13:29:10.625Z,32.40
2017-05-29T13:31:37.765Z,32.30
2017-05-29T13:34:04.824Z,32.20
2017-05-29T13:36:31.885Z,32.20
2017-05-29T13:38:58.984Z,32.30
2017-05-29T13:41:26.050Z,32.20
2017-05-29T13:43:53.108Z,32.50
2017-05-29T13:46:20.283Z,32.60
2017-05-29T13:48:47.346Z,32.50
2017-05-29T13:51:14.449Z,32.50
2017-05-29T13:53:41.516Z,32.60
2017-05-29T13:56:08.605Z,32.60
2017-05-29T13:58:35.657Z,32.50
2017-05-29T14:01:02.713Z,32.60
2017-05-29T14:03:29.804Z,32.50
2017-05-29T14:05:56.877Z,32.50
2017-05-29T14:08:23.974Z,32.60
2017-05-29T14:10:51.052Z,32.60
2017-05-29T14:13:18.149Z,32.70
2017-05-29T14:15:45.201Z,32.70
2017-05-29T14:18:12.244Z,32.70
2017-05-29T14:20:39.397Z,32.70
2017-05-29T14:23:06.482Z,32.80
2017-05-29T14:25:33.616Z,32.70
2017-05-29T14:27:59.959Z,32.70
2017-05-29T14:30:27.089Z,32.80
2017-05-29T14:32:54.200Z,32.70
2017-05-29T14:35:21.276Z,32.60
2017-05-29T14:37:48.408Z,32.60
2017-05-29T14:40:15.506Z,32.70
2017-05-29T14:42:42.589Z,32.80
2017-05-29T14:45:09.769Z,32.90
2017-05-29T14:47:36.893Z,33.00
2017-05-29T14:50:04.353Z,32.90
2017-05-29T14:52:31.444Z,32.80
2017-05-29T14:54:58.496Z,32.70
2017-05-29T14:57:25.583Z,32.70
2017-05-29T14:59:52.672Z,32.70
2017-05-29T15:02:26.049Z,32.70
2017-05-29T15:04:56.855Z,32.70
2017-05-29T15:07:23.977Z,32.60
2017-05-29T15:09:51.042Z,32.70
2017-05-29T15:12:18.663Z,32.80
2017-05-29T15:14:45.753Z,33.00
2017-05-29T15:17:12.964Z,33.00
2017-05-29T15:19:42.758Z,33.00
2017-05-29T15:22:09.832Z,32.90
2017-05-29T15:24:36.964Z,32.90
2017-05-29T15:27:04.031Z,32.90
2017-05-29T15:29:31.120Z,32.70
2017-05-29T15:31:58.212Z,32.60
2017-05-29T15:34:25.289Z,32.80
2017-05-29T15:36:52.427Z,32.90
2017-05-29T15:39:19.493Z,32.80
2017-05-29T15:41:46.589Z,32.80
2017-05-29T15:44:13.645Z,32.80
2017-05-29T15:46:40.712Z,32.80
2017-05-29T15:49:07.804Z,32.90
2017-05-29T15:51:34.972Z,32.80
2017-05-29T15:54:02.072Z,32.80
2017-05-29T15:56:29.140Z,32.80
2017-05-29T15:58:56.189Z,32.80
2017-05-29T16:01:23.245Z,32.80
2017-05-29T16:03:50.371Z,32.70
2017-05-29T16:06:17.431Z,32.80
2017-05-29T16:08:44.517Z,32.90
2017-05-29T16:11:11.861Z,32.90
2017-05-29T16:13:38.936Z,32.90
2017-05-29T16:16:05.998Z,32.80
2017-05-29T16:18:33.317Z,32.70
2017-05-29T16:23:34.053Z,32.80
2017-05-29T16:26:01.116Z,32.80
2017-05-29T16:28:28.219Z,32.80
2017-05-29T16:30:55.317Z,32.70
2017-05-29T16:33:22.390Z,32.60
2017-05-29T16:35:49.789Z,32.60
2017-05-29T16:38:17.102Z,32.60
2017-05-29T16:40:44.618Z,32.60
2017-05-29T16:43:11.945Z,32.40
2017-05-29T16:45:39.276Z,32.40
2017-05-29T16:48:06.597Z,32.40
2017-05-29T16:50:33.918Z,32.40
2017-05-29T16:53:01.332Z,32.30
2017-05-29T16:55:28.645Z,32.40
2017-05-29T16:57:55.948Z,32.50
2017-05-29T17:00:23.268Z,32.40
2017-05-29T17:02:50.592Z,32.40
2017-05-29T17:05:17.896Z,32.30
2017-05-29T17:07:44.444Z,32.30
2017-05-29T17:10:11.788Z,32.20
2017-05-29T17:12:39.101Z,32.30
2017-05-29T17:15:06.420Z,32.40
2017-05-29T17:17:33.728Z,32.30
2017-05-29T17:20:00.928Z,32.30
2017-05-29T17:22:28.312Z,32.10
2017-05-29T17:24:55.513Z,31.40
2017-05-29T17:27:25.989Z,31.70
2017-05-29T17:29:53.320Z,31.70
2017-05-29T17:32:19.799Z,31.70
2017-05-29T17:34:47.113Z,31.80
2017-05-29T17:37:14.419Z,31.80
2017-05-29T17:39:41.725Z,31.70
2017-05-29T17:42:09.041Z,31.60
2017-05-29T17:44:36.402Z,31.50
2017-05-29T17:47:03.700Z,31.30
2017-05-29T17:49:31.036Z,31.40
2017-05-29T17:52:06.133Z,31.40
2017-05-29T17:54:35.628Z,31.30
2017-05-29T17:57:03.258Z,31.10
2017-05-29T17:59:30.309Z,30.80
2017-05-29T18:01:56.852Z,30.80
2017-05-29T18:04:24.198Z,30.30
2017-05-29T18:06:51.494Z,30.10
2017-05-29T18:09:20.099Z,30.10
2017-05-29T18:11:47.391Z,30.10
2017-05-29T18:14:14.700Z,30.10
2017-05-29T18:16:42.109Z,29.80
2017-05-29T18:19:09.840Z,29.80
2017-05-29T18:21:37.195Z,29.70
2017-05-29T18:24:04.552Z,29.50
2017-05-29T18:26:31.878Z,29.10
2017-05-29T18:28:59.217Z,28.90
2017-05-29T18:31:26.625Z,28.80
2017-05-29T18:33:53.935Z,28.50
2017-05-29T18:36:21.300Z,28.40
2017-05-29T18:38:48.626Z,28.40
2017-05-29T18:41:15.928Z,28.20
2017-05-29T18:43:43.223Z,28.10
2017-05-29T18:46:10.854Z,28.00
2017-05-29T18:48:38.089Z,27.90
2017-05-29T18:51:05.329Z,27.80
2017-05-29T18:53:32.648Z,27.70
2017-05-29T18:56:00.099Z,27.60
2017-05-29T18:58:27.413Z,27.60
2017-05-29T19:00:54.726Z,27.50
2017-05-29T19:03:24.916Z,27.50
2017-05-29T19:05:52.237Z,27.50
2017-05-29T19:08:19.597Z,27.40
2017-05-29T19:10:46.937Z,27.30
2017-05-29T19:13:14.261Z,27.30
2017-05-29T19:15:41.591Z,27.20
2017-05-29T19:18:08.901Z,27.00
2017-05-29T19:20:36.228Z,26.90
2017-05-29T19:23:03.573Z,26.90
2017-05-29T19:25:30.932Z,26.90
2017-05-29T19:27:58.132Z,26.80
2017-05-29T19:30:25.482Z,26.80
2017-05-29T19:32:52.684Z,26.80
2017-05-29T19:35:19.880Z,26.80
2017-05-29T19:37:47.196Z,26.60
2017-05-29T19:40:17.701Z,26.60
2017-05-29T19:42:45.002Z,26.50
2017-05-29T19:45:12.317Z,26.50
2017-05-29T19:47:39.609Z,26.40
2017-05-29T19:50:06.810Z,26.40
2017-05-29T19:52:34.129Z,26.30
2017-05-29T19:55:01.358Z,26.30
2017-05-29T19:57:28.222Z,26.30
2017-05-29T19:59:55.524Z,26.00
2017-05-29T20:02:22.688Z,26.00
2017-05-29T20:04:49.997Z,26.00
2017-05-29T20:07:17.340Z,26.00
2017-05-29T20:09:44.673Z,25.90
2017-05-29T20:12:11.893Z,25.80
2017-05-29T20:14:39.722Z,25.80
2017-05-29T20:17:06.896Z,25.90
2017-05-29T20:19:34.253Z,25.70
2017-05-29T20:22:01.566Z,25.70
2017-05-29T20:24:28.813Z,25.70
2017-05-29T20:26:56.857Z,25.70
2017-05-29T20:29:24.097Z,25.70
2017-05-29T20:31:51.280Z,25.80
2017-05-29T20:34:18.586Z,25.70
2017-05-29T20:36:45.856Z,25.70
2017-05-29T20:39:13.148Z,25.80
2017-05-29T20:41:39.769Z,25.80
2017-05-29T20:44:06.941Z,26.00
2017-05-29T20:46:34.296Z,25.90
2017-05-29T20:49:01.682Z,25.70
2017-05-29T20:51:29.014Z,25.90
2017-05-29T20:53:56.999Z,25.80
2017-05-29T20:56:24.313Z,25.80
2017-05-29T20:58:51.672Z,25.80
2017-05-29T21:01:19.137Z,25.70
2017-05-29T21:03:46.521Z,25.60
2017-05-29T21:06:13.808Z,25.60
2017-05-29T21:08:41.169Z,25.50
2017-05-29T21:11:08.494Z,25.40
2017-05-29T21:13:35.789Z,25.50
2017-05-29T21:16:03.087Z,25.40
2017-05-29T21:18:29.920Z,25.40
2017-05-29T21:20:57.225Z,25.30
2017-05-29T21:23:24.621Z,25.30
2017-05-29T21:25:51.864Z,25.20
2017-05-29T21:28:19.157Z,25.10
2017-05-29T21:30:46.505Z,25.10
2017-05-29T21:33:13.848Z,25.10
2017-05-29T21:35:41.320Z,25.00
2017-05-29T21:38:08.536Z,25.00
2017-05-29T21:40:35.965Z,25.00
2017-05-29T21:43:03.765Z,24.90
2017-05-29T21:45:31.113Z,24.90
2017-05-29T21:47:58.463Z,24.90
2017-05-29T21:50:25.836Z,24.90
2017-05-29T21:52:53.164Z,24.80
2017-05-29T21:55:20.448Z,24.80
2017-05-29T21:57:47.749Z,24.80
2017-05-29T22:00:15.189Z,24.70
2017-05-29T22:02:42.396Z,24.70
2017-05-29T22:05:11.024Z,24.70
2017-05-29T22:07:38.257Z,24.60
2017-05-29T22:10:05.600Z,24.60
2017-05-29T22:12:32.156Z,24.50
2017-05-29T22:14:59.497Z,24.60
2017-05-29T22:17:26.890Z,24.60
2017-05-29T22:19:53.393Z,24.60
2017-05-29T22:22:20.745Z,24.60
2017-05-29T22:24:48.026Z,24.60
2017-05-29T22:27:15.318Z,24.70
2017-05-29T22:29:42.544Z,24.70
2017-05-29T22:32:09.889Z,24.80
2017-05-29T22:34:37.186Z,24.90
2017-05-29T22:37:04.485Z,24.90
2017-05-29T22:39:31.064Z,24.90
2017-05-29T22:41:58.725Z,25.10
2017-05-29T22:44:26.102Z,25.30
2017-05-29T22:46:53.437Z,25.40
2017-05-29T22:49:20.814Z,25.40
2017-05-29T22:51:48.133Z,25.30
2017-05-29T22:54:15.467Z,25.40
2017-05-29T22:56:42.848Z,25.40
2017-05-29T22:59:10.126Z,25.30
2017-05-29T23:01:37.457Z,25.30
2017-05-29T23:04:04.733Z,25.30
2017-05-29T23:06:31.973Z,25.40
2017-05-29T23:08:59.263Z,25.40
2017-05-29T23:11:26.601Z,25.40
2017-05-29T23:13:53.857Z,25.50
2017-05-29T23:16:21.281Z,25.40
2017-05-29T23:18:47.736Z,25.40
2017-05-29T23:21:15.048Z,25.40
2017-05-29T23:23:42.406Z,25.40
2017-05-29T23:26:09.716Z,25.30
2017-05-29T23:28:36.194Z,25.20
2017-05-29T23:31:03.408Z,25.30
2017-05-29T23:33:30.741Z,25.30
2017-05-29T23:35:58.161Z,25.30
2017-05-29T23:38:25.801Z,25.20
2017-05-29T23:40:53.105Z,25.10
2017-05-29T23:43:20.297Z,25.00
2017-05-29T23:45:47.640Z,24.90
2017-05-29T23:48:14.963Z,25.00
2017-05-29T23:50:42.295Z,24.90
2017-05-29T23:53:09.961Z,24.90
2017-05-29T23:55:37.277Z,24.90
2017-05-29T23:58:04.703Z,24.90
